sensor_id;sensor_type;location;lat;lon;timestamp;pressure;altitude;pressure_sealevel;temperature;humidity
64792;BME280;51226;47.504;19.074;2024-01-30T00:02:32;102629.69;;;3.89;63.26
64792;BME280;51226;47.504;19.074;2024-01-30T00:05:35;102629.69;;;3.89;63.34
64792;BME280;51226;47.504;19.074;2024-01-30T00:08:37;102633.00;;;3.88;63.53
64792;BME280;51226;47.504;19.074;2024-01-30T00:11:40;102637.28;;;3.88;63.51
64792;BME280;51226;47.504;19.074;2024-01-30T00:14:43;102636.06;;;3.84;63.45
64792;BME280;51226;47.504;19.074;2024-01-30T00:17:46;102628.88;;;3.82;63.47
64792;BME280;51226;47.504;19.074;2024-01-30T00:20:48;102634.84;;;3.89;63.38
64792;BME280;51226;47.504;19.074;2024-01-30T00:23:51;102630.41;;;3.80;63.42
64792;BME280;51226;47.504;19.074;2024-01-30T00:26:54;102636.63;;;3.73;63.71
64792;BME280;51226;47.504;19.074;2024-01-30T00:29:57;102626.47;;;3.75;63.62
64792;BME280;51226;47.504;19.074;2024-01-30T00:32:59;102633.87;;;3.71;63.65
64792;BME280;51226;47.504;19.074;2024-01-30T00:36:03;102638.59;;;3.76;63.53
64792;BME280;51226;47.504;19.074;2024-01-30T00:39:05;102638.16;;;3.80;63.55
64792;BME280;51226;47.504;19.074;2024-01-30T00:42:11;102648.91;;;3.76;63.48
64792;BME280;51226;47.504;19.074;2024-01-30T00:45:14;102643.72;;;3.67;63.67
64792;BME280;51226;47.504;19.074;2024-01-30T00:48:18;102644.75;;;3.60;63.99
64792;BME280;51226;47.504;19.074;2024-01-30T00:51:20;102637.47;;;3.56;64.05
64792;BME280;51226;47.504;19.074;2024-01-30T00:54:23;102648.53;;;3.55;64.07
64792;BME280;51226;47.504;19.074;2024-01-30T00:57:25;102646.87;;;3.56;64.10
64792;BME280;51226;47.504;19.074;2024-01-30T01:00:30;102637.47;;;3.56;64.02
64792;BME280;51226;47.504;19.074;2024-01-30T01:03:34;102642.66;;;3.56;64.05
64792;BME280;51226;47.504;19.074;2024-01-30T01:06:37;102632.91;;;3.53;64.02
64792;BME280;51226;47.504;19.074;2024-01-30T01:09:39;102637.31;;;3.55;64.09
64792;BME280;51226;47.504;19.074;2024-01-30T01:12:43;102629.59;;;3.55;64.08
64792;BME280;51226;47.504;19.074;2024-01-30T01:15:46;102635.78;;;3.48;64.30
64792;BME280;51226;47.504;19.074;2024-01-30T01:18:49;102633.03;;;3.46;64.30
64792;BME280;51226;47.504;19.074;2024-01-30T01:21:51;102635.47;;;3.45;64.34
64792;BME280;51226;47.504;19.074;2024-01-30T01:24:54;102632.72;;;3.43;64.19
64792;BME280;51226;47.504;19.074;2024-01-30T01:27:57;102633.91;;;3.38;64.34
64792;BME280;51226;47.504;19.074;2024-01-30T01:31:00;102627.69;;;3.36;64.61
64792;BME280;51226;47.504;19.074;2024-01-30T01:34:07;102625.84;;;3.35;64.39
64792;BME280;51226;47.504;19.074;2024-01-30T01:37:10;102628.88;;;3.31;64.60
64792;BME280;51226;47.504;19.074;2024-01-30T01:40:13;102627.38;;;3.33;64.61
64792;BME280;51226;47.504;19.074;2024-01-30T01:43:16;102625.69;;;3.33;64.62
64792;BME280;51226;47.504;19.074;2024-01-30T01:46:18;102617.31;;;3.27;64.83
64792;BME280;51226;47.504;19.074;2024-01-30T01:49:23;102625.06;;;3.27;64.84
64792;BME280;51226;47.504;19.074;2024-01-30T01:52:27;102623.97;;;3.25;64.70
64792;BME280;51226;47.504;19.074;2024-01-30T01:55:31;102622.47;;;3.27;64.35
64792;BME280;51226;47.504;19.074;2024-01-30T01:58:34;102624.94;;;3.26;64.43
64792;BME280;51226;47.504;19.074;2024-01-30T02:01:38;102619.44;;;3.23;64.47
64792;BME280;51226;47.504;19.074;2024-01-30T02:04:43;102619.53;;;3.15;64.86
64792;BME280;51226;47.504;19.074;2024-01-30T02:07:46;102621.06;;;3.13;64.92
64792;BME280;51226;47.504;19.074;2024-01-30T02:10:49;102621.53;;;3.18;64.81
64792;BME280;51226;47.504;19.074;2024-01-30T02:13:52;102618.78;;;3.17;64.80
64792;BME280;51226;47.504;19.074;2024-01-30T02:16:55;102614.22;;;3.14;64.70
64792;BME280;51226;47.504;19.074;2024-01-30T02:19:58;102613.31;;;3.13;64.78
64792;BME280;51226;47.504;19.074;2024-01-30T02:23:01;102611.75;;;3.07;65.05
64792;BME280;51226;47.504;19.074;2024-01-30T02:26:04;102616.34;;;3.09;65.03
64792;BME280;51226;47.504;19.074;2024-01-30T02:29:07;102616.59;;;3.04;65.21
64792;BME280;51226;47.504;19.074;2024-01-30T02:32:10;102615.22;;;2.99;65.15
64792;BME280;51226;47.504;19.074;2024-01-30T02:35:12;102612.63;;;2.99;65.22
64792;BME280;51226;47.504;19.074;2024-01-30T02:38:15;102618.72;;;2.99;65.12
64792;BME280;51226;47.504;19.074;2024-01-30T02:41:18;102610.34;;;2.93;65.25
64792;BME280;51226;47.504;19.074;2024-01-30T02:44:21;102618.06;;;2.93;65.37
64792;BME280;51226;47.504;19.074;2024-01-30T02:47:23;102624.13;;;2.93;65.29
64792;BME280;51226;47.504;19.074;2024-01-30T02:50:26;102617.75;;;2.90;65.43
64792;BME280;51226;47.504;19.074;2024-01-30T02:53:29;102617.00;;;2.91;65.41
64792;BME280;51226;47.504;19.074;2024-01-30T02:56:31;102618.06;;;2.93;65.44
64792;BME280;51226;47.504;19.074;2024-01-30T02:59:34;102612.59;;;2.90;65.54
64792;BME280;51226;47.504;19.074;2024-01-30T03:02:38;102611.06;;;2.92;65.35
64792;BME280;51226;47.504;19.074;2024-01-30T03:05:41;102611.34;;;2.86;65.44
64792;BME280;51226;47.504;19.074;2024-01-30T03:08:44;102610.59;;;2.87;65.37
64792;BME280;51226;47.504;19.074;2024-01-30T03:11:47;102606.03;;;2.85;65.25
64792;BME280;51226;47.504;19.074;2024-01-30T03:14:50;102607.56;;;2.83;65.43
64792;BME280;51226;47.504;19.074;2024-01-30T03:17:53;102613.72;;;2.76;65.42
64792;BME280;51226;47.504;19.074;2024-01-30T03:20:56;102617.66;;;2.72;65.75
64792;BME280;51226;47.504;19.074;2024-01-30T03:23:59;102623.88;;;2.74;65.84
64792;BME280;51226;47.504;19.074;2024-01-30T03:27:02;102609.16;;;2.73;66.02
64792;BME280;51226;47.504;19.074;2024-01-30T03:30:05;102611.03;;;2.83;65.82
64792;BME280;51226;47.504;19.074;2024-01-30T03:33:08;102611.31;;;2.77;65.98
64792;BME280;51226;47.504;19.074;2024-01-30T03:36:11;102625.09;;;2.78;66.03
64792;BME280;51226;47.504;19.074;2024-01-30T03:39:13;102616.72;;;2.72;66.31
64792;BME280;51226;47.504;19.074;2024-01-30T03:42:18;102613.41;;;2.73;66.40
64792;BME280;51226;47.504;19.074;2024-01-30T03:45:21;102610.22;;;2.75;66.14
64792;BME280;51226;47.504;19.074;2024-01-30T03:48:24;102607.00;;;2.69;66.56
64792;BME280;51226;47.504;19.074;2024-01-30T03:51:27;102598.19;;;2.67;66.56
64792;BME280;51226;47.504;19.074;2024-01-30T03:54:30;102597.78;;;2.71;66.86
64792;BME280;51226;47.504;19.074;2024-01-30T03:57:33;102600.03;;;2.68;67.01
64792;BME280;51226;47.504;19.074;2024-01-30T04:00:36;102603.34;;;2.67;67.01
64792;BME280;51226;47.504;19.074;2024-01-30T04:03:39;102600.03;;;2.68;66.87
64792;BME280;51226;47.504;19.074;2024-01-30T04:06:42;102592.56;;;2.63;67.11
64792;BME280;51226;47.504;19.074;2024-01-30T04:09:45;102595.59;;;2.67;67.03
64792;BME280;51226;47.504;19.074;2024-01-30T04:12:47;102595.59;;;2.67;67.05
64792;BME280;51226;47.504;19.074;2024-01-30T04:15:50;102593.16;;;2.60;67.17
64792;BME280;51226;47.504;19.074;2024-01-30T04:18:53;102590.41;;;2.58;67.46
64792;BME280;51226;47.504;19.074;2024-01-30T04:21:56;102586.94;;;2.58;67.34
64792;BME280;51226;47.504;19.074;2024-01-30T04:24:58;102588.75;;;2.59;67.36
64792;BME280;51226;47.504;19.074;2024-01-30T04:28:01;102588.44;;;2.56;67.32
64792;BME280;51226;47.504;19.074;2024-01-30T04:31:04;102584.75;;;2.54;67.47
64792;BME280;51226;47.504;19.074;2024-01-30T04:34:07;102593.25;;;2.53;67.56
64792;BME280;51226;47.504;19.074;2024-01-30T04:37:11;102594.50;;;2.56;67.51
64792;BME280;51226;47.504;19.074;2024-01-30T04:40:13;102599.47;;;2.55;67.54
64792;BME280;51226;47.504;19.074;2024-01-30T04:43:16;102589.91;;;2.54;67.36
64792;BME280;51226;47.504;19.074;2024-01-30T04:46:19;102591.41;;;2.52;67.46
64792;BME280;51226;47.504;19.074;2024-01-30T04:49:22;102602.66;;;2.52;67.47
64792;BME280;51226;47.504;19.074;2024-01-30T04:52:26;102600.66;;;2.50;67.50
64792;BME280;51226;47.504;19.074;2024-01-30T04:55:28;102596.84;;;2.46;67.54
64792;BME280;51226;47.504;19.074;2024-01-30T04:58:32;102600.00;;;2.44;67.57
64792;BME280;51226;47.504;19.074;2024-01-30T05:01:34;102606.53;;;2.49;67.65
64792;BME280;51226;47.504;19.074;2024-01-30T05:04:37;102602.50;;;2.51;67.48
64792;BME280;51226;47.504;19.074;2024-01-30T05:07:41;102615.19;;;2.49;67.55
64792;BME280;51226;47.504;19.074;2024-01-30T05:10:44;102615.66;;;2.54;67.26
64792;BME280;51226;47.504;19.074;2024-01-30T05:13:47;102619.00;;;2.53;67.19
64792;BME280;51226;47.504;19.074;2024-01-30T05:16:50;102614.09;;;2.63;66.95
64792;BME280;51226;47.504;19.074;2024-01-30T05:19:53;102621.16;;;2.57;66.92
64792;BME280;51226;47.504;19.074;2024-01-30T05:22:56;102627.75;;;2.46;67.01
64792;BME280;51226;47.504;19.074;2024-01-30T05:25:59;102633.47;;;2.44;66.89
64792;BME280;51226;47.504;19.074;2024-01-30T05:29:04;102625.28;;;2.39;66.99
64792;BME280;51226;47.504;19.074;2024-01-30T05:32:06;102635.56;;;2.39;66.73
64792;BME280;51226;47.504;19.074;2024-01-30T05:35:10;102637.22;;;2.38;66.94
64792;BME280;51226;47.504;19.074;2024-01-30T05:38:12;102638.94;;;2.47;66.60
64792;BME280;51226;47.504;19.074;2024-01-30T05:41:15;102642.59;;;2.49;66.61
64792;BME280;51226;47.504;19.074;2024-01-30T05:44:18;102634.66;;;2.38;66.82
64792;BME280;51226;47.504;19.074;2024-01-30T05:47:21;102640.78;;;2.32;67.19
64792;BME280;51226;47.504;19.074;2024-01-30T05:50:23;102641.03;;;2.42;66.93
64792;BME280;51226;47.504;19.074;2024-01-30T05:53:28;102639.47;;;2.35;67.11
64792;BME280;51226;47.504;19.074;2024-01-30T05:56:31;102636.03;;;2.44;66.89
64792;BME280;51226;47.504;19.074;2024-01-30T05:59:36;102644.31;;;2.32;67.20
64792;BME280;51226;47.504;19.074;2024-01-30T06:02:44;102638.81;;;2.29;67.39
64792;BME280;51226;47.504;19.074;2024-01-30T06:05:47;102639.38;;;2.27;67.48
64792;BME280;51226;47.504;19.074;2024-01-30T06:08:50;102650.84;;;2.21;67.59
64792;BME280;51226;47.504;19.074;2024-01-30T06:11:53;102655.09;;;2.21;67.59
64792;BME280;51226;47.504;19.074;2024-01-30T06:14:57;102650.34;;;2.17;67.52
64792;BME280;51226;47.504;19.074;2024-01-30T06:18:00;102647.59;;;2.15;67.73
64792;BME280;51226;47.504;19.074;2024-01-30T06:21:04;102650.53;;;2.18;67.41
64792;BME280;51226;47.504;19.074;2024-01-30T06:24:07;102658.47;;;2.29;67.22
64792;BME280;51226;47.504;19.074;2024-01-30T06:27:09;102646.28;;;2.35;66.96
64792;BME280;51226;47.504;19.074;2024-01-30T06:30:12;102643.81;;;2.28;67.19
64792;BME280;51226;47.504;19.074;2024-01-30T06:33:15;102651.75;;;2.22;67.35
64792;BME280;51226;47.504;19.074;2024-01-30T06:36:18;102662.06;;;2.22;67.18
64792;BME280;51226;47.504;19.074;2024-01-30T06:39:20;102662.06;;;2.22;67.30
64792;BME280;51226;47.504;19.074;2024-01-30T06:42:24;102656.00;;;2.21;67.06
64792;BME280;51226;47.504;19.074;2024-01-30T06:45:26;102666.12;;;2.20;67.13
64792;BME280;51226;47.504;19.074;2024-01-30T06:48:29;102661.88;;;2.20;67.16
64792;BME280;51226;47.504;19.074;2024-01-30T06:51:32;102660.97;;;2.20;67.34
64792;BME280;51226;47.504;19.074;2024-01-30T06:54:35;102669.03;;;2.23;67.15
64792;BME280;51226;47.504;19.074;2024-01-30T06:57:37;102659.88;;;2.34;66.69
64792;BME280;51226;47.504;19.074;2024-01-30T07:00:40;102659.75;;;2.32;66.78
64792;BME280;51226;47.504;19.074;2024-01-30T07:03:43;102657.69;;;2.21;67.35
64792;BME280;51226;47.504;19.074;2024-01-30T07:06:46;102655.50;;;2.33;66.88
64792;BME280;51226;47.504;19.074;2024-01-30T07:09:49;102656.69;;;2.28;67.03
64792;BME280;51226;47.504;19.074;2024-01-30T07:12:55;102664.91;;;2.32;66.86
64792;BME280;51226;47.504;19.074;2024-01-30T07:15:58;102664.91;;;2.32;67.10
64792;BME280;51226;47.504;19.074;2024-01-30T07:19:01;102662.22;;;2.39;66.76
64792;BME280;51226;47.504;19.074;2024-01-30T07:22:03;102659.06;;;2.42;66.72
64792;BME280;51226;47.504;19.074;2024-01-30T07:25:07;102674.06;;;2.62;66.01
64792;BME280;51226;47.504;19.074;2024-01-30T07:28:09;102671.81;;;2.65;65.99
64792;BME280;51226;47.504;19.074;2024-01-30T07:31:13;102665.44;;;2.77;66.59
64792;BME280;51226;47.504;19.074;2024-01-30T07:34:16;102670.13;;;2.82;66.99
64792;BME280;51226;47.504;19.074;2024-01-30T07:37:19;102668.22;;;2.88;65.99
64792;BME280;51226;47.504;19.074;2024-01-30T07:40:22;102661.28;;;2.95;65.60
64792;BME280;51226;47.504;19.074;2024-01-30T07:43:25;102659.84;;;3.06;65.32
64792;BME280;51226;47.504;19.074;2024-01-30T07:46:28;102657.66;;;3.27;64.50
64792;BME280;51226;47.504;19.074;2024-01-30T07:49:31;102653.22;;;3.50;63.47
64792;BME280;51226;47.504;19.074;2024-01-30T07:52:38;102652.09;;;3.73;62.75
64792;BME280;51226;47.504;19.074;2024-01-30T07:55:42;102648.97;;;3.93;62.07
64792;BME280;51226;47.504;19.074;2024-01-30T07:59:03;102648.22;;;4.03;62.04
64792;BME280;51226;47.504;19.074;2024-01-30T08:02:06;102648.88;;;4.26;62.08
64792;BME280;51226;47.504;19.074;2024-01-30T08:05:09;102652.06;;;4.76;60.67
64792;BME280;51226;47.504;19.074;2024-01-30T08:08:14;102653.56;;;5.37;57.98
64792;BME280;51226;47.504;19.074;2024-01-30T08:11:16;102648.28;;;5.63;57.54
64792;BME280;51226;47.504;19.074;2024-01-30T08:14:19;102643.50;;;6.04;55.84
64792;BME280;51226;47.504;19.074;2024-01-30T08:17:22;102646.53;;;6.28;55.37
64792;BME280;51226;47.504;19.074;2024-01-30T08:20:25;102646.47;;;6.56;55.03
64792;BME280;51226;47.504;19.074;2024-01-30T08:23:28;102648.03;;;7.02;54.21
64792;BME280;51226;47.504;19.074;2024-01-30T08:26:31;102643.16;;;7.65;51.45
64792;BME280;51226;47.504;19.074;2024-01-30T08:29:34;102642.63;;;8.00;51.69
64792;BME280;51226;47.504;19.074;2024-01-30T08:32:36;102650.25;;;8.60;49.78
64792;BME280;51226;47.504;19.074;2024-01-30T08:35:39;102649.91;;;8.98;48.66
64792;BME280;51226;47.504;19.074;2024-01-30T08:38:42;102653.03;;;9.26;47.78
64792;BME280;51226;47.504;19.074;2024-01-30T08:41:45;102651.41;;;9.39;46.57
64792;BME280;51226;47.504;19.074;2024-01-30T08:44:48;102654.84;;;9.27;46.34
64792;BME280;51226;47.504;19.074;2024-01-30T08:47:52;102662.28;;;9.23;46.22
64792;BME280;51226;47.504;19.074;2024-01-30T08:50:54;102663.94;;;9.11;46.90
64792;BME280;51226;47.504;19.074;2024-01-30T08:53:58;102665.06;;;9.14;46.50
64792;BME280;51226;47.504;19.074;2024-01-30T08:57:01;102656.44;;;8.93;47.27
64792;BME280;51226;47.504;19.074;2024-01-30T09:00:04;102656.06;;;8.78;47.36
64792;BME280;51226;47.504;19.074;2024-01-30T09:03:09;102650.91;;;8.68;47.76
64792;BME280;51226;47.504;19.074;2024-01-30T09:06:12;102656.16;;;8.90;47.81
64792;BME280;51226;47.504;19.074;2024-01-30T09:09:15;102642.34;;;9.56;47.07
64792;BME280;51226;47.504;19.074;2024-01-30T09:12:18;102646.03;;;10.73;44.26
64792;BME280;51226;47.504;19.074;2024-01-30T09:15:21;102633.94;;;12.10;41.50
64792;BME280;51226;47.504;19.074;2024-01-30T09:18:27;102643.56;;;12.76;39.95
64792;BME280;51226;47.504;19.074;2024-01-30T09:21:31;102630.81;;;13.36;38.48
64792;BME280;51226;47.504;19.074;2024-01-30T09:24:34;102630.31;;;13.84;36.90
64792;BME280;51226;47.504;19.074;2024-01-30T09:27:37;102623.97;;;13.81;37.17
64792;BME280;51226;47.504;19.074;2024-01-30T09:30:42;102627.34;;;13.93;36.96
64792;BME280;51226;47.504;19.074;2024-01-30T09:33:47;102623.50;;;13.73;36.96
64792;BME280;51226;47.504;19.074;2024-01-30T09:36:52;102630.03;;;13.65;37.38
64792;BME280;51226;47.504;19.074;2024-01-30T09:39:57;102627.00;;;14.61;36.06
64792;BME280;51226;47.504;19.074;2024-01-30T09:43:00;102621.47;;;15.51;34.74
64792;BME280;51226;47.504;19.074;2024-01-30T09:46:03;102624.69;;;15.78;33.25
64792;BME280;51226;47.504;19.074;2024-01-30T09:49:08;102623.25;;;14.88;35.09
64792;BME280;51226;47.504;19.074;2024-01-30T09:52:11;102621.59;;;14.90;35.57
64792;BME280;51226;47.504;19.074;2024-01-30T09:55:15;102624.31;;;14.91;34.72
64792;BME280;51226;47.504;19.074;2024-01-30T09:58:18;102626.81;;;13.99;36.43
64792;BME280;51226;47.504;19.074;2024-01-30T10:01:21;102628.28;;;13.24;37.97
64792;BME280;51226;47.504;19.074;2024-01-30T10:04:24;102624.94;;;12.98;38.52
64792;BME280;51226;47.504;19.074;2024-01-30T10:07:27;102634.34;;;12.29;39.83
64792;BME280;51226;47.504;19.074;2024-01-30T10:10:31;102634.50;;;11.80;41.37
64792;BME280;51226;47.504;19.074;2024-01-30T10:13:36;102631.81;;;11.42;42.36
64792;BME280;51226;47.504;19.074;2024-01-30T10:16:39;102635.97;;;11.26;43.29
64792;BME280;51226;47.504;19.074;2024-01-30T10:19:41;102635.09;;;12.53;41.90
64792;BME280;51226;47.504;19.074;2024-01-30T10:22:45;102619.78;;;14.27;37.87
64792;BME280;51226;47.504;19.074;2024-01-30T10:25:48;102620.09;;;13.89;38.27
64792;BME280;51226;47.504;19.074;2024-01-30T10:28:51;102619.87;;;12.34;41.20
64792;BME280;51226;47.504;19.074;2024-01-30T10:32:04;102613.88;;;11.97;42.20
64792;BME280;51226;47.504;19.074;2024-01-30T10:35:07;102609.00;;;14.23;39.14
64792;BME280;51226;47.504;19.074;2024-01-30T10:38:11;102607.62;;;16.93;33.70
64792;BME280;51226;47.504;19.074;2024-01-30T10:41:16;102598.12;;;16.60;33.40
64792;BME280;51226;47.504;19.074;2024-01-30T10:44:21;102590.72;;;17.07;32.40
64792;BME280;51226;47.504;19.074;2024-01-30T10:47:26;102581.50;;;19.26;30.37
64792;BME280;51226;47.504;19.074;2024-01-30T10:50:28;102572.34;;;21.57;26.54
64792;BME280;51226;47.504;19.074;2024-01-30T10:53:33;102562.97;;;22.39;25.29
64792;BME280;51226;47.504;19.074;2024-01-30T10:56:36;102561.59;;;22.20;24.76
64792;BME280;51226;47.504;19.074;2024-01-30T10:59:39;102548.22;;;21.19;25.85
64792;BME280;51226;47.504;19.074;2024-01-30T11:02:43;102555.47;;;18.90;28.41
64792;BME280;51226;47.504;19.074;2024-01-30T11:05:51;102550.38;;;17.28;31.43
64792;BME280;51226;47.504;19.074;2024-01-30T11:09:04;102540.00;;;16.93;32.20
64792;BME280;51226;47.504;19.074;2024-01-30T11:12:12;102545.66;;;16.47;32.96
64792;BME280;51226;47.504;19.074;2024-01-30T11:15:15;102554.66;;;15.64;34.16
64792;BME280;51226;47.504;19.074;2024-01-30T11:18:22;102548.69;;;14.39;36.48
64792;BME280;51226;47.504;19.074;2024-01-30T11:21:26;102547.28;;;14.15;37.33
64792;BME280;51226;47.504;19.074;2024-01-30T11:24:29;102531.00;;;14.20;37.19
64792;BME280;51226;47.504;19.074;2024-01-30T11:27:31;102537.03;;;14.19;37.11
64792;BME280;51226;47.504;19.074;2024-01-30T11:30:35;102537.78;;;12.87;39.50
64792;BME280;51226;47.504;19.074;2024-01-30T11:33:37;102543.41;;;11.86;41.89
64792;BME280;51226;47.504;19.074;2024-01-30T11:36:40;102538.25;;;10.99;43.71
64792;BME280;51226;47.504;19.074;2024-01-30T11:39:45;102542.97;;;11.42;42.08
64792;BME280;51226;47.504;19.074;2024-01-30T11:42:48;102535.75;;;11.01;43.01
64792;BME280;51226;47.504;19.074;2024-01-30T11:45:51;102535.94;;;11.41;42.95
64792;BME280;51226;47.504;19.074;2024-01-30T11:48:55;102533.09;;;11.12;43.25
64792;BME280;51226;47.504;19.074;2024-01-30T11:51:57;102527.38;;;11.30;43.49
64792;BME280;51226;47.504;19.074;2024-01-30T11:55:00;102527.47;;;11.57;42.83
64792;BME280;51226;47.504;19.074;2024-01-30T11:58:04;102530.06;;;11.57;42.84
64792;BME280;51226;47.504;19.074;2024-01-30T12:01:07;102521.75;;;10.75;43.96
64792;BME280;51226;47.504;19.074;2024-01-30T12:04:11;102513.03;;;10.74;44.29
64792;BME280;51226;47.504;19.074;2024-01-30T12:07:13;102506.38;;;10.31;45.42
64792;BME280;51226;47.504;19.074;2024-01-30T12:10:19;102506.69;;;10.24;45.90
64792;BME280;51226;47.504;19.074;2024-01-30T12:13:23;102496.34;;;10.61;45.06
64792;BME280;51226;47.504;19.074;2024-01-30T12:16:26;102499.41;;;10.67;44.39
64792;BME280;51226;47.504;19.074;2024-01-30T12:19:28;102493.41;;;11.05;43.82
64792;BME280;51226;47.504;19.074;2024-01-30T12:22:32;102486.84;;;10.98;43.98
64792;BME280;51226;47.504;19.074;2024-01-30T12:25:34;102483.66;;;10.65;44.71
64792;BME280;51226;47.504;19.074;2024-01-30T12:28:47;102482.41;;;10.97;44.33
64792;BME280;51226;47.504;19.074;2024-01-30T12:31:52;102485.56;;;11.68;42.62
64792;BME280;51226;47.504;19.074;2024-01-30T12:34:55;102481.56;;;12.54;41.15
64792;BME280;51226;47.504;19.074;2024-01-30T12:38:03;102478.94;;;14.13;37.63
64792;BME280;51226;47.504;19.074;2024-01-30T12:41:06;102464.22;;;15.96;33.82
64792;BME280;51226;47.504;19.074;2024-01-30T12:44:09;102459.28;;;17.98;30.91
64792;BME280;51226;47.504;19.074;2024-01-30T12:47:12;102453.09;;;19.36;27.90
64792;BME280;51226;47.504;19.074;2024-01-30T12:50:15;102457.94;;;20.01;26.99
64792;BME280;51226;47.504;19.074;2024-01-30T12:53:21;102454.72;;;20.97;25.88
64792;BME280;51226;47.504;19.074;2024-01-30T12:56:24;102439.53;;;21.23;25.28
64792;BME280;51226;47.504;19.074;2024-01-30T12:59:27;102441.13;;;22.23;23.80
64792;BME280;51226;47.504;19.074;2024-01-30T13:02:30;102438.19;;;21.39;24.62
64792;BME280;51226;47.504;19.074;2024-01-30T13:05:37;102429.44;;;22.15;23.61
64792;BME280;51226;47.504;19.074;2024-01-30T13:08:40;102430.44;;;21.82;23.45
64792;BME280;51226;47.504;19.074;2024-01-30T13:11:43;102419.53;;;21.71;23.83
64792;BME280;51226;47.504;19.074;2024-01-30T13:14:46;102429.13;;;22.39;23.32
64792;BME280;51226;47.504;19.074;2024-01-30T13:17:51;102428.84;;;21.20;24.27
64792;BME280;51226;47.504;19.074;2024-01-30T13:20:56;102420.19;;;20.96;24.36
64792;BME280;51226;47.504;19.074;2024-01-30T13:23:59;102414.28;;;21.06;24.27
64792;BME280;51226;47.504;19.074;2024-01-30T13:27:02;102413.22;;;22.02;22.75
64792;BME280;51226;47.504;19.074;2024-01-30T13:30:08;102411.84;;;20.23;23.76
64792;BME280;51226;47.504;19.074;2024-01-30T13:33:14;102416.66;;;20.95;23.13
64792;BME280;51226;47.504;19.074;2024-01-30T13:36:16;102424.56;;;18.79;24.50
64792;BME280;51226;47.504;19.074;2024-01-30T13:39:19;102423.28;;;15.85;27.47
64792;BME280;51226;47.504;19.074;2024-01-30T13:42:25;102428.62;;;13.74;30.32
64792;BME280;51226;47.504;19.074;2024-01-30T13:45:27;102429.78;;;12.76;32.32
64792;BME280;51226;47.504;19.074;2024-01-30T13:48:31;102425.00;;;12.42;33.08
64792;BME280;51226;47.504;19.074;2024-01-30T13:51:34;102432.66;;;11.98;34.13
64792;BME280;51226;47.504;19.074;2024-01-30T13:54:39;102431.41;;;11.02;35.71
64792;BME280;51226;47.504;19.074;2024-01-30T13:57:42;102431.00;;;9.87;37.76
64792;BME280;51226;47.504;19.074;2024-01-30T14:00:45;102434.53;;;9.18;39.30
64792;BME280;51226;47.504;19.074;2024-01-30T14:03:48;102425.63;;;8.48;40.71
64792;BME280;51226;47.504;19.074;2024-01-30T14:06:51;102441.34;;;8.07;42.01
64792;BME280;51226;47.504;19.074;2024-01-30T14:10:07;102434.97;;;7.71;43.15
64792;BME280;51226;47.504;19.074;2024-01-30T14:13:14;102443.28;;;7.67;43.56
64792;BME280;51226;47.504;19.074;2024-01-30T14:16:17;102425.78;;;7.64;44.15
64792;BME280;51226;47.504;19.074;2024-01-30T14:19:19;102428.62;;;7.67;44.32
64792;BME280;51226;47.504;19.074;2024-01-30T14:22:22;102428.66;;;7.57;44.19
64792;BME280;51226;47.504;19.074;2024-01-30T14:25:25;102427.88;;;7.37;44.83
64792;BME280;51226;47.504;19.074;2024-01-30T14:28:28;102435.28;;;7.33;45.35
64792;BME280;51226;47.504;19.074;2024-01-30T14:31:31;102422.03;;;7.19;45.70
64792;BME280;51226;47.504;19.074;2024-01-30T14:34:34;102428.53;;;7.14;45.84
64792;BME280;51226;47.504;19.074;2024-01-30T14:37:38;102431.38;;;7.28;46.01
64792;BME280;51226;47.504;19.074;2024-01-30T14:40:41;102425.94;;;7.24;46.10
64792;BME280;51226;47.504;19.074;2024-01-30T14:43:44;102424.62;;;7.30;46.36
64792;BME280;51226;47.504;19.074;2024-01-30T14:46:47;102422.31;;;7.22;46.69
64792;BME280;51226;47.504;19.074;2024-01-30T14:49:49;102424.91;;;7.12;47.11
64792;BME280;51226;47.504;19.074;2024-01-30T14:52:52;102426.84;;;7.15;46.99
64792;BME280;51226;47.504;19.074;2024-01-30T14:55:55;102420.34;;;7.10;47.22
64792;BME280;51226;47.504;19.074;2024-01-30T14:58:58;102420.34;;;6.99;47.56
64792;BME280;51226;47.504;19.074;2024-01-30T15:02:00;102423.59;;;6.97;47.73
64792;BME280;51226;47.504;19.074;2024-01-30T15:05:04;102421.78;;;6.85;47.98
64792;BME280;51226;47.504;19.074;2024-01-30T15:08:06;102424.62;;;6.89;48.25
64792;BME280;51226;47.504;19.074;2024-01-30T15:11:10;102422.31;;;7.02;48.03
64792;BME280;51226;47.504;19.074;2024-01-30T15:14:14;102423.19;;;6.82;48.27
64792;BME280;51226;47.504;19.074;2024-01-30T15:17:17;102416.59;;;6.96;48.53
64792;BME280;51226;47.504;19.074;2024-01-30T15:20:21;102419.53;;;6.80;48.85
64792;BME280;51226;47.504;19.074;2024-01-30T15:23:24;102416.94;;;6.70;49.06
64792;BME280;51226;47.504;19.074;2024-01-30T15:26:26;102411.75;;;6.70;49.06
64792;BME280;51226;47.504;19.074;2024-01-30T15:29:32;102413.97;;;6.65;49.29
64792;BME280;51226;47.504;19.074;2024-01-30T15:32:36;102412.78;;;6.61;49.58
64792;BME280;51226;47.504;19.074;2024-01-30T15:35:39;102410.94;;;6.50;49.78
64792;BME280;51226;47.504;19.074;2024-01-30T15:38:41;102416.56;;;6.65;50.08
64792;BME280;51226;47.504;19.074;2024-01-30T15:41:44;102414.06;;;6.66;50.15
64792;BME280;51226;47.504;19.074;2024-01-30T15:44:47;102416.44;;;6.63;50.21
64792;BME280;51226;47.504;19.074;2024-01-30T15:47:50;102417.72;;;6.58;50.54
64792;BME280;51226;47.504;19.074;2024-01-30T15:50:52;102416.44;;;6.63;50.91
64792;BME280;51226;47.504;19.074;2024-01-30T15:53:56;102414.22;;;6.68;50.81
64792;BME280;51226;47.504;19.074;2024-01-30T15:56:59;102431.44;;;6.57;51.42